createdAt,value
2019-04-19T00:01:47.821Z,99.90
2019-04-19T00:04:31.212Z,99.90
2019-04-19T00:07:09.731Z,99.90
2019-04-19T00:09:43.673Z,99.90
2019-04-19T00:12:20.346Z,99.90
2019-04-19T00:14:33.703Z,99.90
2019-04-19T00:17:06.059Z,99.90
2019-04-19T00:19:52.689Z,99.90
2019-04-19T00:22:25.257Z,99.90
2019-04-19T00:24:33.619Z,99.90
2019-04-19T00:27:03.892Z,99.90
2019-04-19T00:29:42.460Z,99.90
2019-04-19T00:32:16.981Z,99.90
2019-04-19T00:34:33.674Z,99.90
2019-04-19T00:37:03.580Z,99.90
2019-04-19T00:39:51.425Z,99.90
2019-04-19T00:42:24.690Z,99.90
2019-04-19T00:44:59.006Z,99.90
2019-04-19T00:47:24.711Z,99.90
2019-04-19T00:49:55.454Z,99.90
2019-04-19T00:52:23.441Z,99.90
2019-04-19T00:54:49.160Z,99.90
2019-04-19T00:57:20.123Z,99.90
2019-04-19T00:59:44.693Z,99.90
2019-04-19T01:02:14.211Z,99.90
2019-04-19T01:04:39.680Z,99.90
2019-04-19T01:07:13.139Z,99.90
2019-04-19T01:09:52.049Z,99.90
2019-04-19T01:12:20.529Z,99.90
2019-04-19T01:14:47.800Z,99.90
2019-04-19T01:17:22.468Z,99.90
2019-04-19T01:19:46.965Z,99.90
2019-04-19T01:22:15.185Z,99.90
2019-04-19T01:24:43.429Z,99.90
2019-04-19T01:27:15.091Z,99.90
2019-04-19T01:29:45.122Z,99.90
2019-04-19T01:32:30.353Z,99.90
2019-04-19T01:35:05.924Z,99.90
2019-04-19T01:37:31.201Z,99.90
2019-04-19T01:40:13.470Z,99.90
2019-04-19T01:42:47.842Z,99.90
2019-04-19T01:45:17.557Z,99.90
2019-04-19T01:47:51.478Z,99.90
2019-04-19T01:50:32.827Z,99.90
2019-04-19T01:53:06.221Z,99.90
2019-04-19T01:55:21.738Z,99.90
2019-04-19T01:57:43.497Z,99.90
2019-04-19T02:00:25.276Z,99.90
2019-04-19T02:02:53.714Z,99.90
2019-04-19T02:05:19.067Z,99.90
2019-04-19T02:07:49.736Z,99.90
2019-04-19T02:11:02.856Z,99.90
2019-04-19T02:13:30.183Z,99.90
2019-04-19T02:15:55.684Z,99.90
2019-04-19T02:18:27.360Z,99.90
2019-04-19T02:20:54.555Z,99.90
2019-04-19T02:23:24.102Z,99.90
2019-04-19T02:26:00.542Z,99.90
2019-04-19T02:28:29.341Z,99.90
2019-04-19T02:31:13.936Z,99.90
2019-04-19T02:33:57.096Z,99.90
2019-04-19T02:36:24.945Z,99.90
2019-04-19T02:39:00.615Z,99.90
2019-04-19T02:41:30.333Z,99.90
2019-04-19T02:44:09.308Z,99.90
2019-04-19T02:49:09.467Z,99.90
2019-04-19T02:51:26.241Z,99.90
2019-04-19T02:53:58.185Z,99.90
2019-04-19T02:56:42.685Z,99.90
2019-04-19T02:59:30.760Z,99.90
2019-04-19T03:04:47.823Z,99.90
2019-04-19T03:06:47.929Z,99.90
2019-04-19T03:09:11.371Z,99.90
2019-04-19T03:11:58.537Z,99.90
2019-04-19T03:14:22.590Z,99.90
2019-04-19T03:16:59.348Z,99.90
2019-04-19T03:19:22.961Z,99.90
2019-04-19T03:21:56.000Z,99.90
2019-04-19T03:24:23.956Z,99.90
2019-04-19T03:26:56.193Z,99.90
2019-04-19T03:29:22.393Z,99.90
2019-04-19T03:32:24.083Z,99.90
2019-04-19T03:36:57.536Z,99.90
2019-04-19T03:39:35.064Z,99.90
2019-04-19T03:42:31.709Z,99.90
2019-04-19T03:44:40.217Z,99.90
2019-04-19T03:47:16.279Z,99.90
2019-04-19T03:49:57.210Z,99.90
2019-04-19T03:52:15.524Z,99.90
2019-04-19T03:54:39.277Z,99.90
2019-04-19T03:57:10.130Z,99.90
2019-04-19T03:59:26.861Z,99.90
2019-04-19T04:01:58.315Z,99.90
2019-04-19T04:04:30.140Z,99.90
2019-04-19T04:07:00.064Z,99.90
2019-04-19T04:09:33.269Z,99.90
2019-04-19T04:12:27.700Z,99.90
2019-04-19T04:15:13.046Z,99.90
2019-04-19T04:17:28.954Z,99.90
2019-04-19T04:19:58.626Z,99.90
2019-04-19T04:22:31.780Z,99.90
2019-04-19T04:25:06.079Z,99.90
2019-04-19T04:27:41.783Z,99.90
2019-04-19T04:30:08.209Z,99.90
2019-04-19T04:32:43.155Z,99.90
2019-04-19T04:35:13.864Z,99.90
2019-04-19T04:37:44.529Z,99.90
2019-04-19T04:39:59.839Z,99.90
2019-04-19T04:42:35.674Z,99.90
2019-04-19T04:45:23.234Z,99.90
2019-04-19T04:47:51.948Z,99.90
2019-04-19T04:50:34.502Z,99.90
2019-04-19T04:52:43.900Z,99.90
2019-04-19T04:55:15.848Z,99.90
2019-04-19T04:57:51.090Z,99.90
2019-04-19T05:00:15.892Z,99.90
2019-04-19T05:03:00.106Z,99.90
2019-04-19T05:05:31.742Z,99.90
2019-04-19T05:08:10.246Z,99.90
2019-04-19T05:10:31.633Z,99.90
2019-04-19T05:15:36.278Z,99.90
2019-04-19T05:18:12.099Z,99.90
2019-04-19T05:20:39.795Z,99.90
2019-04-19T05:23:09.303Z,99.90
2019-04-19T05:25:59.564Z,99.90
2019-04-19T05:28:15.271Z,99.90
2019-04-19T05:30:34.526Z,99.90
2019-04-19T05:33:06.205Z,99.90
2019-04-19T05:35:46.730Z,99.90
2019-04-19T05:38:21.938Z,99.90
2019-04-19T05:41:06.245Z,99.90
2019-04-19T05:44:30.462Z,99.90
2019-04-19T05:46:37.545Z,99.90
2019-04-19T05:48:53.719Z,99.90
2019-04-19T05:51:40.841Z,99.90
2019-04-19T05:53:50.162Z,99.90
2019-04-19T05:56:16.285Z,99.90
2019-04-19T05:58:57.299Z,99.90
2019-04-19T06:01:36.625Z,99.90
2019-04-19T06:04:07.596Z,99.90
2019-04-19T06:06:38.983Z,99.90
2019-04-19T06:08:49.783Z,99.90
2019-04-19T06:11:26.410Z,99.90
2019-04-19T06:14:10.297Z,99.90
2019-04-19T06:16:35.001Z,99.90
2019-04-19T06:19:12.542Z,99.90
2019-04-19T06:21:39.506Z,99.90
2019-04-19T06:24:17.284Z,99.90
2019-04-19T06:29:21.100Z,99.90
2019-04-19T06:31:51.529Z,99.90
2019-04-19T06:34:17.405Z,99.90
2019-04-19T06:36:27.183Z,99.90
2019-04-19T06:38:57.045Z,99.90
2019-04-19T06:41:28.551Z,99.90
2019-04-19T06:44:08.522Z,99.90
2019-04-19T06:46:39.703Z,99.90
2019-04-19T06:49:05.991Z,99.90
2019-04-19T06:51:35.560Z,99.90
2019-04-19T06:54:02.401Z,99.90
2019-04-19T06:56:33.348Z,99.90
2019-04-19T06:59:10.632Z,99.90
2019-04-19T07:01:37.160Z,99.90
2019-04-19T07:03:59.882Z,99.90
2019-04-19T07:06:42.818Z,99.90
2019-04-19T07:11:50.024Z,99.90
2019-04-19T07:14:08.532Z,99.90
2019-04-19T07:16:49.562Z,99.90
2019-04-19T07:19:20.281Z,99.90
2019-04-19T07:21:48.273Z,99.90
2019-04-19T07:24:32.247Z,99.90
2019-04-19T07:26:46.974Z,99.90
2019-04-19T07:29:02.146Z,99.90
2019-04-19T07:31:33.762Z,99.90
2019-04-19T07:34:11.420Z,99.90
2019-04-19T07:36:52.948Z,99.90
2019-04-19T07:39:20.631Z,99.90
2019-04-19T07:41:52.269Z,99.90
2019-04-19T07:44:17.256Z,99.90
2019-04-19T07:47:11.355Z,99.90
2019-04-19T07:49:25.319Z,99.90
2019-04-19T07:52:04.603Z,99.90
2019-04-19T07:54:28.863Z,99.90
2019-04-19T07:57:31.141Z,99.90
2019-04-19T08:02:30.081Z,99.90
2019-04-19T08:05:04.689Z,99.90
2019-04-19T08:12:23.926Z,99.90
2019-04-19T08:15:00.884Z,99.90
2019-04-19T08:29:40.698Z,99.90
2019-04-19T08:32:02.536Z,99.90
2019-04-19T08:34:32.620Z,99.90
2019-04-19T08:37:04.709Z,99.90
2019-04-19T08:39:47.561Z,99.90
2019-04-19T08:42:20.542Z,99.90
2019-04-19T08:44:45.348Z,99.90
2019-04-19T08:47:16.764Z,99.90
2019-04-19T08:49:43.159Z,99.90
2019-04-19T08:52:23.583Z,99.90
2019-04-19T08:55:09.050Z,99.90
2019-04-19T08:57:22.217Z,99.90
2019-04-19T09:00:12.390Z,99.90
2019-04-19T09:02:34.525Z,99.90
2019-04-19T09:05:03.992Z,99.90
2019-04-19T09:07:53.556Z,99.90
2019-04-19T09:10:22.006Z,99.90
2019-04-19T09:12:34.612Z,99.90
2019-04-19T09:15:08.782Z,99.90
2019-04-19T09:17:58.816Z,99.90
2019-04-19T09:22:35.853Z,99.90
2019-04-19T09:24:57.479Z,99.90
2019-04-19T09:27:41.734Z,99.90
2019-04-19T09:30:13.800Z,99.90
2019-04-19T09:32:28.692Z,99.90
2019-04-19T09:35:01.504Z,99.90
2019-04-19T09:37:41.633Z,99.90
2019-04-19T09:40:03.097Z,99.90
2019-04-19T09:42:36.641Z,99.90
2019-04-19T09:44:58.671Z,99.90
2019-04-19T09:47:25.031Z,99.90
2019-04-19T09:50:08.937Z,99.90
2019-04-19T09:52:47.031Z,99.90
2019-04-19T09:55:15.844Z,99.90
2019-04-19T09:57:46.706Z,99.90
2019-04-19T10:00:03.252Z,99.90
2019-04-19T10:02:32.976Z,99.90
2019-04-19T10:04:55.038Z,99.90
2019-04-19T10:07:23.491Z,99.90
2019-04-19T10:09:56.719Z,99.90
2019-04-19T10:12:22.250Z,99.90
2019-04-19T10:14:51.458Z,99.90
2019-04-19T10:17:24.738Z,99.90
2019-04-19T10:19:53.460Z,99.90
2019-04-19T10:22:22.947Z,99.90
2019-04-19T10:24:54.095Z,99.90
2019-04-19T10:27:24.760Z,99.90
2019-04-19T10:29:55.508Z,99.90
2019-04-19T10:32:28.960Z,99.90
2019-04-19T10:34:58.790Z,99.90
2019-04-19T10:37:29.195Z,99.90
2019-04-19T10:39:59.436Z,99.90
2019-04-19T10:42:29.364Z,99.90
2019-04-19T10:44:58.297Z,99.90
2019-04-19T10:47:29.212Z,99.90
2019-04-19T10:50:11.919Z,99.90
2019-04-19T10:52:29.290Z,99.90
2019-04-19T10:54:59.436Z,99.90
2019-04-19T10:57:29.911Z,99.90
2019-04-19T11:00:03.233Z,99.90
2019-04-19T11:02:34.053Z,99.90
2019-04-19T11:05:05.139Z,99.90
2019-04-19T11:07:38.462Z,99.90
2019-04-19T11:10:07.492Z,99.90
2019-04-19T11:12:38.501Z,99.90
2019-04-19T11:15:08.823Z,99.90
2019-04-19T11:17:38.089Z,99.90
2019-04-19T11:20:22.703Z,99.90
2019-04-19T11:22:39.829Z,99.90
2019-04-19T11:25:10.114Z,99.90
2019-04-19T11:27:39.413Z,99.90
2019-04-19T11:30:10.865Z,99.90
2019-04-19T11:32:42.063Z,99.90
2019-04-19T11:35:12.217Z,99.90
2019-04-19T11:37:41.119Z,99.90
2019-04-19T11:40:11.383Z,99.90
2019-04-19T11:42:41.311Z,99.90
2019-04-19T11:45:10.529Z,99.90
2019-04-19T11:47:38.967Z,99.90
2019-04-19T11:50:11.341Z,99.90
2019-04-19T11:52:41.904Z,99.90
2019-04-19T11:55:10.605Z,99.90
2019-04-19T11:57:40.864Z,99.90
2019-04-19T12:00:11.633Z,99.90
2019-04-19T12:02:42.179Z,99.90
2019-04-19T12:05:19.524Z,99.90
2019-04-19T12:07:42.263Z,99.90
2019-04-19T12:10:12.359Z,99.90
2019-04-19T12:12:41.337Z,99.90
2019-04-19T12:15:10.753Z,99.90
2019-04-19T12:17:40.074Z,99.90
2019-04-19T12:20:09.754Z,99.90
2019-04-19T12:22:39.886Z,99.90
2019-04-19T12:25:10.036Z,99.10
2019-04-19T12:27:39.496Z,97.60
2019-04-19T12:30:11.549Z,98.10
2019-04-19T12:32:42.023Z,97.90
2019-04-19T12:35:11.003Z,97.00
2019-04-19T12:37:40.874Z,97.60
2019-04-19T12:40:10.846Z,99.00
2019-04-19T12:42:40.242Z,96.30
2019-04-19T12:45:10.686Z,96.40
2019-04-19T12:47:39.186Z,93.60
2019-04-19T12:50:09.878Z,92.70
2019-04-19T12:52:39.946Z,92.60
2019-04-19T12:55:10.130Z,93.00
2019-04-19T12:57:41.593Z,93.60
2019-04-19T13:00:12.013Z,93.90
2019-04-19T13:02:45.161Z,93.30
2019-04-19T13:05:16.292Z,91.80
2019-04-19T13:07:45.280Z,90.20
2019-04-19T13:10:15.138Z,90.10
2019-04-19T13:12:44.000Z,91.20
2019-04-19T13:15:13.727Z,91.70
2019-04-19T13:17:44.337Z,91.80
2019-04-19T13:20:20.590Z,90.20
2019-04-19T13:22:44.390Z,87.90
2019-04-19T13:25:16.461Z,90.30
2019-04-19T13:27:50.671Z,93.10
2019-04-19T13:30:25.948Z,98.50
2019-04-19T13:32:47.830Z,97.00
2019-04-19T13:35:17.066Z,98.50
2019-04-19T13:37:47.710Z,99.90
2019-04-19T13:40:24.547Z,99.90
2019-04-19T13:42:55.739Z,99.90
2019-04-19T13:45:28.202Z,99.90
2019-04-19T13:47:54.591Z,99.90
2019-04-19T13:50:30.317Z,99.90
2019-04-19T13:52:54.853Z,99.90
2019-04-19T13:55:24.472Z,99.90
2019-04-19T13:57:53.665Z,99.90
2019-04-19T14:00:44.788Z,99.90
2019-04-19T14:03:13.865Z,99.90
2019-04-19T14:05:43.833Z,99.90
2019-04-19T14:08:13.171Z,99.90
2019-04-19T14:10:41.737Z,99.90
2019-04-19T14:13:10.684Z,99.90
2019-04-19T14:15:40.784Z,99.90
2019-04-19T14:18:10.803Z,99.90
2019-04-19T14:20:44.027Z,99.90
2019-04-19T14:23:09.850Z,99.90
2019-04-19T14:25:39.122Z,99.90
2019-04-19T14:28:09.395Z,99.90
2019-04-19T14:30:39.475Z,99.90
2019-04-19T14:33:08.429Z,99.90
2019-04-19T14:35:37.676Z,99.90
2019-04-19T14:38:07.585Z,99.90
2019-04-19T14:40:37.507Z,99.90
2019-04-19T14:43:06.770Z,99.90
2019-04-19T14:45:38.115Z,99.90
2019-04-19T14:48:08.919Z,99.90
2019-04-19T14:50:46.240Z,99.90
2019-04-19T14:53:08.129Z,99.90
2019-04-19T14:55:38.155Z,99.90
2019-04-19T14:58:06.741Z,99.90
2019-04-19T15:00:36.820Z,99.90
2019-04-19T15:03:07.323Z,99.90
2019-04-19T15:05:37.536Z,99.90
2019-04-19T15:08:06.728Z,99.90
2019-04-19T15:10:35.689Z,99.90
2019-04-19T15:13:04.940Z,99.90
2019-04-19T15:15:35.761Z,99.90
2019-04-19T15:18:04.858Z,99.90
2019-04-19T15:20:33.976Z,99.90
2019-04-19T15:23:02.810Z,99.90
2019-04-19T15:25:32.574Z,99.90
2019-04-19T15:28:01.268Z,99.90
2019-04-19T15:30:30.800Z,99.90
2019-04-19T15:33:00.437Z,99.90
2019-04-19T15:35:29.731Z,99.90
2019-04-19T15:37:59.209Z,99.90
2019-04-19T15:40:28.500Z,99.90
2019-04-19T15:42:57.378Z,99.90
2019-04-19T15:45:29.336Z,99.90
2019-04-19T15:47:57.934Z,99.90
2019-04-19T15:50:27.618Z,99.90
2019-04-19T15:52:56.161Z,99.90
2019-04-19T15:55:26.063Z,99.90
2019-04-19T15:57:56.440Z,99.90
2019-04-19T16:00:34.594Z,99.90
2019-04-19T16:03:05.566Z,99.90
2019-04-19T16:05:40.062Z,99.50
2019-04-19T16:08:27.039Z,97.20
2019-04-19T16:11:00.662Z,95.80
2019-04-19T16:13:30.075Z,94.40
2019-04-19T16:16:00.515Z,95.10
2019-04-19T16:18:31.936Z,93.40
2019-04-19T16:21:01.303Z,93.30
2019-04-19T16:23:30.150Z,94.70
2019-04-19T16:25:59.240Z,95.90
2019-04-19T16:28:29.586Z,97.30
2019-04-19T16:30:58.166Z,99.90
2019-04-19T16:33:27.666Z,99.90
2019-04-19T16:35:56.742Z,99.90
2019-04-19T16:38:26.265Z,99.90
2019-04-19T16:40:54.841Z,99.90
2019-04-19T16:43:23.772Z,99.90
2019-04-19T16:46:03.247Z,99.90
2019-04-19T16:48:22.601Z,99.90
2019-04-19T16:50:51.025Z,99.90
2019-04-19T16:53:19.870Z,99.90
2019-04-19T16:55:49.808Z,99.90
2019-04-19T16:58:18.822Z,99.90
2019-04-19T17:00:49.489Z,99.90
2019-04-19T17:03:17.782Z,99.90
2019-04-19T17:05:48.801Z,99.90
2019-04-19T17:08:17.748Z,99.90
2019-04-19T17:10:46.920Z,99.90
2019-04-19T17:13:16.868Z,99.90
2019-04-19T17:15:53.285Z,99.90
2019-04-19T17:18:32.469Z,99.90
2019-04-19T17:21:05.880Z,99.90
2019-04-19T17:23:35.093Z,99.90
2019-04-19T17:26:04.725Z,99.90
2019-04-19T17:28:33.218Z,99.90
2019-04-19T17:31:02.207Z,99.90
2019-04-19T17:33:30.894Z,99.90
2019-04-19T17:35:59.778Z,99.90
2019-04-19T17:38:35.813Z,99.90
2019-04-19T17:40:58.751Z,99.90
2019-04-19T17:43:27.720Z,99.90
2019-04-19T17:45:56.820Z,99.90
2019-04-19T17:48:26.298Z,99.90
2019-04-19T17:50:55.693Z,99.90
2019-04-19T17:53:35.287Z,99.90
2019-04-19T17:55:56.383Z,99.90
2019-04-19T17:58:25.572Z,99.90
2019-04-19T18:00:54.566Z,99.90
2019-04-19T18:03:24.855Z,99.90
2019-04-19T18:05:54.090Z,99.90
2019-04-19T18:08:27.580Z,99.90
2019-04-19T18:10:57.441Z,99.90
2019-04-19T18:13:25.477Z,99.90
2019-04-19T18:15:54.385Z,99.90
2019-04-19T18:18:22.980Z,99.90
2019-04-19T18:20:54.139Z,99.90
2019-04-19T18:23:32.570Z,99.90
2019-04-19T18:25:52.968Z,99.90
2019-04-19T18:28:25.281Z,99.90
2019-04-19T18:30:54.372Z,99.90
2019-04-19T18:33:24.568Z,99.90
2019-04-19T18:36:00.925Z,99.90
2019-04-19T18:38:27.707Z,99.90
2019-04-19T18:40:57.447Z,99.90
2019-04-19T18:43:35.476Z,99.90
2019-04-19T18:45:57.038Z,99.90
2019-04-19T18:48:27.255Z,99.90
2019-04-19T18:50:56.170Z,99.90
2019-04-19T18:53:34.496Z,99.90
2019-04-19T18:55:56.779Z,99.90
2019-04-19T18:58:32.449Z,99.90
2019-04-19T19:00:57.605Z,99.90
2019-04-19T19:03:31.438Z,99.90
2019-04-19T19:06:00.693Z,99.90
2019-04-19T19:08:29.512Z,99.90
2019-04-19T19:10:57.483Z,99.90
2019-04-19T19:13:30.711Z,99.90
2019-04-19T19:15:58.247Z,99.90
2019-04-19T19:18:33.641Z,99.90
2019-04-19T19:21:01.131Z,99.90
2019-04-19T19:23:43.420Z,99.90
2019-04-19T19:26:10.592Z,99.90
2019-04-19T19:28:29.104Z,99.90
2019-04-19T19:30:58.814Z,99.90
2019-04-19T19:33:35.387Z,99.90
2019-04-19T19:36:00.239Z,99.90
2019-04-19T19:38:30.844Z,99.90
2019-04-19T19:41:08.088Z,99.90
2019-04-19T19:43:42.527Z,99.90
2019-04-19T19:46:23.079Z,99.90
2019-04-19T19:48:55.507Z,99.90
2019-04-19T19:51:18.293Z,99.90
2019-04-19T19:54:25.440Z,99.90
2019-04-19T19:58:36.729Z,99.90
2019-04-19T20:01:11.438Z,99.90
2019-04-19T20:03:37.695Z,99.90
2019-04-19T20:06:04.925Z,99.90
2019-04-19T20:08:37.436Z,99.90
2019-04-19T20:11:00.150Z,99.90
2019-04-19T20:13:37.239Z,99.90
2019-04-19T20:15:58.870Z,99.90
2019-04-19T20:18:33.241Z,99.90
2019-04-19T20:20:58.542Z,99.90
2019-04-19T20:23:33.523Z,99.90
2019-04-19T20:26:08.566Z,99.90
2019-04-19T20:28:33.350Z,99.90
2019-04-19T20:31:01.955Z,99.90
2019-04-19T20:33:38.283Z,99.90
2019-04-19T20:36:03.507Z,99.90
2019-04-19T20:38:37.103Z,99.90
2019-04-19T20:41:03.240Z,99.90
2019-04-19T20:43:45.893Z,99.90
2019-04-19T20:46:09.057Z,99.90
2019-04-19T20:48:31.779Z,99.90
2019-04-19T20:51:12.796Z,99.90
2019-04-19T20:53:40.676Z,99.90
2019-04-19T20:56:43.911Z,99.90
2019-04-19T20:59:01.446Z,99.90
2019-04-19T21:01:30.719Z,99.90
2019-04-19T21:04:05.558Z,99.90
2019-04-19T21:06:33.569Z,99.90
2019-04-19T21:09:01.120Z,99.90
2019-04-19T21:11:34.639Z,99.90
2019-04-19T21:14:01.981Z,99.90
2019-04-19T21:16:31.222Z,99.90
2019-04-19T21:19:02.544Z,99.90
2019-04-19T21:21:31.289Z,99.90
2019-04-19T21:24:03.646Z,99.90
2019-04-19T21:26:31.681Z,99.90
2019-04-19T21:29:01.269Z,99.90
2019-04-19T21:31:37.367Z,99.90
2019-04-19T21:34:05.447Z,99.90
2019-04-19T21:36:38.476Z,99.90
2019-04-19T21:39:07.716Z,99.90
2019-04-19T21:41:35.364Z,99.90
2019-04-19T21:44:00.774Z,99.90
2019-04-19T21:46:33.379Z,99.90
2019-04-19T21:49:02.609Z,99.90
2019-04-19T21:51:34.380Z,99.90
2019-04-19T21:54:00.830Z,99.90
2019-04-19T21:56:29.875Z,99.90
2019-04-19T21:59:01.244Z,99.90
2019-04-19T22:01:34.874Z,99.90
2019-04-19T22:04:05.141Z,99.90
2019-04-19T22:06:31.712Z,99.90
2019-04-19T22:09:09.868Z,99.90
2019-04-19T22:11:32.197Z,99.90
2019-04-19T22:14:02.264Z,99.90
2019-04-19T22:16:36.615Z,99.90
2019-04-19T22:19:01.538Z,99.90
2019-04-19T22:21:37.400Z,99.90
2019-04-19T22:24:00.574Z,99.90
2019-04-19T22:26:34.332Z,99.90
2019-04-19T22:28:59.713Z,99.90
2019-04-19T22:31:32.643Z,99.90
2019-04-19T22:33:58.680Z,99.90
2019-04-19T22:36:31.494Z,99.90
2019-04-19T22:39:00.245Z,99.90
2019-04-19T22:41:28.638Z,99.90
2019-04-19T22:43:58.704Z,99.90
2019-04-19T22:46:27.762Z,99.90
2019-04-19T22:49:00.178Z,99.90
2019-04-19T22:51:26.829Z,99.90
2019-04-19T22:53:56.729Z,99.90
2019-04-19T22:56:33.514Z,99.90
2019-04-19T22:58:59.025Z,99.90
2019-04-19T23:01:29.730Z,99.90
2019-04-19T23:04:05.729Z,99.90
2019-04-19T23:06:30.953Z,99.90
2019-04-19T23:08:58.964Z,99.90
2019-04-19T23:11:27.690Z,99.90
2019-04-19T23:13:56.429Z,99.90
2019-04-19T23:16:25.643Z,99.90
2019-04-19T23:19:00.852Z,99.90
2019-04-19T23:21:26.416Z,99.90
2019-04-19T23:23:56.982Z,99.90
2019-04-19T23:26:44.240Z,99.90
2019-04-19T23:28:55.009Z,99.90
2019-04-19T23:31:24.636Z,99.90
2019-04-19T23:34:00.603Z,99.90
2019-04-19T23:36:25.869Z,99.90
2019-04-19T23:39:02.507Z,99.90
2019-04-19T23:41:24.761Z,99.90
2019-04-19T23:43:53.501Z,99.90
2019-04-19T23:46:26.072Z,99.90
2019-04-19T23:48:55.202Z,99.90
2019-04-19T23:51:23.232Z,99.90
2019-04-19T23:53:52.271Z,99.90
2019-04-19T23:56:29.746Z,99.90
2019-04-19T23:58:52.200Z,99.90
